Aviation Digital Data Service (ADDS)

Output produced by TAFs form (0216 UTC 24 June 2017)
found at http://www.aviationweather.gov/adds/tafs/
 
METAR text: KPWA 240153Z 02014KT 10SM CLR 27/12 A3000 RMK AO2 SLP141 T02720122
Conditions at: KPWA (OKLA CITY/WILEY , OK, US) observed 0153 UTC 24 June 2017
Temperature: 27.2°C (81°F)
Dewpoint: 12.2°C (54°F) [RH = 39%]
Pressure (altimeter): 30.00 inches Hg (1016.0 mb)
[Sea-level pressure: 1014.1 mb]
Winds: from the NNE (20 degrees) at 16 MPH (14 knots; 7.3 m/s)
Visibility: 10 or more miles (16+ km)
Ceiling: at least 12,000 feet AGL
Clouds: sky clear below 12,000 feet AGL
Weather: no significant weather observed at this time